createdAt,value
2023-02-03T00:04:30.559Z,16.25
2023-02-03T00:09:38.029Z,17.58
2023-02-03T00:14:41.423Z,17.25
2023-02-03T00:19:44.771Z,17.43
2023-02-03T00:24:51.665Z,18.04
2023-02-03T00:29:57.297Z,19.48
2023-02-03T00:35:00.726Z,17.89
2023-02-03T00:40:06.193Z,17.91
2023-02-03T00:45:10.157Z,17.63
2023-02-03T00:50:13.641Z,19.58
2023-02-03T00:55:19.072Z,19.43
2023-02-03T01:00:22.659Z,19.32
2023-02-03T01:05:26.084Z,20.39
2023-02-03T01:10:33.091Z,19.50
2023-02-03T01:15:36.511Z,18.56
2023-02-03T01:20:39.909Z,19.34
2023-02-03T01:25:44.708Z,18.61
2023-02-03T01:30:50.504Z,19.36
2023-02-03T01:35:56.178Z,19.18
2023-02-03T01:41:01.171Z,15.61
2023-02-03T01:46:09.309Z,14.40
2023-02-03T01:51:12.762Z,18.80
2023-02-03T01:56:18.605Z,19.33
2023-02-03T02:01:24.403Z,19.27
2023-02-03T02:06:27.839Z,19.46
2023-02-03T02:11:32.605Z,19.21
2023-02-03T02:16:43.616Z,19.15
2023-02-03T02:22:01.678Z,17.96
2023-02-03T02:27:16.607Z,17.81
2023-02-03T02:32:32.043Z,13.59
2023-02-03T02:37:41.072Z,9.28
2023-02-03T02:42:54.412Z,17.42
2023-02-03T02:48:08.059Z,18.37
2023-02-03T02:53:14.392Z,18.48
2023-02-03T02:58:21.689Z,19.06
2023-02-03T03:03:26.730Z,18.66
2023-02-03T03:08:37.095Z,20.27
2023-02-03T03:13:44.525Z,19.52
2023-02-03T03:18:51.109Z,18.90
2023-02-03T03:23:57.767Z,19.70
2023-02-03T03:29:08.707Z,20.11
2023-02-03T03:34:15.038Z,24.49
2023-02-03T03:39:24.798Z,19.42
2023-02-03T03:44:35.068Z,17.09
2023-02-03T03:49:45.602Z,14.97
2023-02-03T03:54:54.222Z,19.26
2023-02-03T03:59:57.554Z,19.53
2023-02-03T04:05:04.627Z,19.43
2023-02-03T04:10:15.560Z,22.10
2023-02-03T04:15:18.986Z,22.84
2023-02-03T04:20:23.920Z,18.14
2023-02-03T04:25:27.513Z,19.03
2023-02-03T04:30:33.200Z,18.95
2023-02-03T04:35:38.497Z,20.11
2023-02-03T04:40:42.702Z,20.16
2023-02-03T04:45:48.639Z,19.68
2023-02-03T04:50:53.410Z,19.23
2023-02-03T04:55:56.854Z,24.46
2023-02-03T05:01:08.110Z,20.42
2023-02-03T05:06:13.076Z,22.21
2023-02-03T05:11:18.932Z,21.25
2023-02-03T05:16:22.396Z,21.33
2023-02-03T05:21:27.204Z,20.50
2023-02-03T05:26:30.568Z,18.08
2023-02-03T05:31:36.531Z,28.53
2023-02-03T05:36:41.329Z,23.02
2023-02-03T05:41:58.362Z,23.35
2023-02-03T05:47:01.928Z,20.54
2023-02-03T05:52:08.927Z,21.16
2023-02-03T05:57:13.571Z,24.12
2023-02-03T06:02:17.155Z,21.33
2023-02-03T06:07:24.425Z,24.89
2023-02-03T06:12:29.338Z,27.18
2023-02-03T06:17:36.090Z,31.98
2023-02-03T06:22:43.731Z,25.32
2023-02-03T06:27:47.224Z,25.87
2023-02-03T06:32:50.812Z,26.86
2023-02-03T06:37:57.630Z,31.81
2023-02-03T06:43:01.075Z,37.55
2023-02-03T06:48:07.711Z,32.26
2023-02-03T06:53:12.647Z,35.09
2023-02-03T06:58:16.299Z,25.50
2023-02-03T07:03:20.642Z,28.45
2023-02-03T07:08:25.861Z,32.10
2023-02-03T07:13:29.488Z,30.61
2023-02-03T07:18:46.888Z,27.13
2023-02-03T07:23:57.481Z,29.75
2023-02-03T07:29:04.160Z,26.76
2023-02-03T07:34:09.966Z,31.51
2023-02-03T07:39:14.739Z,26.03
2023-02-03T07:44:20.343Z,29.08
2023-02-03T07:49:26.253Z,30.75
2023-02-03T07:54:34.014Z,31.87
2023-02-03T07:59:37.427Z,27.95
2023-02-03T08:04:42.006Z,27.20
2023-02-03T08:09:49.716Z,27.35
2023-02-03T08:14:53.194Z,27.45
2023-02-03T08:19:56.646Z,26.17
2023-02-03T08:25:01.352Z,26.82
2023-02-03T08:30:05.121Z,24.97
2023-02-03T08:35:09.983Z,23.14
2023-02-03T08:40:17.351Z,25.16
2023-02-03T08:45:20.836Z,30.64
2023-02-03T08:50:24.358Z,29.73
2023-02-03T08:55:29.157Z,31.29
2023-02-03T09:00:32.628Z,27.83
2023-02-03T09:05:36.300Z,28.98
2023-02-03T09:10:43.579Z,28.42
2023-02-03T09:15:46.990Z,27.56
2023-02-03T09:20:52.995Z,29.84
2023-02-03T09:26:02.504Z,32.45
2023-02-03T09:31:07.770Z,28.62
2023-02-03T09:36:11.567Z,30.61
2023-02-03T09:41:25.798Z,27.60
2023-02-03T09:46:33.189Z,32.36
2023-02-03T09:51:46.360Z,27.71
2023-02-03T09:56:55.861Z,24.66
2023-02-03T10:02:09.594Z,31.40
2023-02-03T10:07:20.293Z,30.29
2023-02-03T10:12:37.088Z,26.90
2023-02-03T10:17:46.907Z,34.82
2023-02-03T10:22:54.624Z,28.94
2023-02-03T10:28:03.291Z,28.93
2023-02-03T10:33:11.485Z,28.20
2023-02-03T10:38:23.848Z,31.80
2023-02-03T10:43:51.762Z,31.18
2023-02-03T10:48:55.376Z,29.93
2023-02-03T10:54:01.512Z,32.02
2023-02-03T10:59:09.847Z,27.15
2023-02-03T11:04:26.231Z,14.68
2023-02-03T11:09:34.414Z,15.75
2023-02-03T11:14:45.868Z,12.20
2023-02-03T11:19:50.973Z,14.29
2023-02-03T11:24:55.370Z,15.83
2023-02-03T11:30:12.814Z,20.04
2023-02-03T11:35:18.950Z,17.91
2023-02-03T11:40:28.133Z,16.97
2023-02-03T11:45:41.969Z,20.75
2023-02-03T11:50:49.315Z,21.67
2023-02-03T11:56:05.555Z,15.07
2023-02-03T12:01:15.589Z,13.16
2023-02-03T12:06:28.144Z,14.29
2023-02-03T12:11:43.393Z,16.06
2023-02-03T12:17:09.374Z,16.48
2023-02-03T12:22:19.425Z,15.90
2023-02-03T12:27:31.884Z,15.50
2023-02-03T12:32:43.716Z,19.17
2023-02-03T12:37:51.453Z,14.52
2023-02-03T12:42:58.366Z,13.53
2023-02-03T12:48:11.175Z,15.34
2023-02-03T12:53:21.140Z,13.97
2023-02-03T12:58:31.572Z,14.79
2023-02-03T13:03:43.973Z,15.58
2023-02-03T13:08:52.971Z,15.80
2023-02-03T13:13:59.744Z,22.22
2023-02-03T13:19:07.983Z,15.20
2023-02-03T13:24:14.427Z,14.23
2023-02-03T13:29:34.921Z,16.56
2023-02-03T13:34:53.307Z,31.45
2023-02-03T13:40:08.164Z,35.33
2023-02-03T13:45:17.660Z,31.76
2023-02-03T13:50:28.281Z,21.16
2023-02-03T13:55:38.196Z,17.65
2023-02-03T14:01:04.994Z,17.75
2023-02-03T14:06:33.026Z,17.84
2023-02-03T14:11:43.319Z,15.95
2023-02-03T14:16:51.345Z,15.99
2023-02-03T14:22:01.305Z,21.90
2023-02-03T14:27:07.313Z,38.34
2023-02-03T14:32:11.834Z,35.28
2023-02-03T14:37:23.011Z,33.01
2023-02-03T14:42:45.146Z,32.94
2023-02-03T14:48:01.202Z,30.89
2023-02-03T14:53:21.748Z,28.49
2023-02-03T14:58:30.004Z,32.44
2023-02-03T15:03:35.138Z,32.65
2023-02-03T15:08:46.764Z,28.98
2023-02-03T15:13:52.824Z,32.10
2023-02-03T15:18:57.779Z,29.87
2023-02-03T15:24:15.248Z,28.93
2023-02-03T15:29:23.203Z,32.60
2023-02-03T15:34:31.348Z,33.83
2023-02-03T15:39:43.024Z,31.32
2023-02-03T15:44:51.896Z,29.62
2023-02-03T15:50:02.288Z,30.21
2023-02-03T15:55:16.990Z,31.46
2023-02-03T16:00:34.716Z,31.32
2023-02-03T16:05:38.379Z,37.65
2023-02-03T16:10:43.244Z,30.21
2023-02-03T16:15:58.977Z,27.07
2023-02-03T16:21:06.123Z,26.10
2023-02-03T16:26:19.536Z,27.35
2023-02-03T16:31:40.914Z,28.00
2023-02-03T16:37:02.748Z,25.62
2023-02-03T16:42:32.683Z,26.44
2023-02-03T16:47:53.765Z,32.25
2023-02-03T16:52:59.503Z,31.16
2023-02-03T16:58:12.010Z,30.91
2023-02-03T17:03:17.349Z,42.48
2023-02-03T17:08:21.930Z,30.90
2023-02-03T17:13:26.699Z,69.35
2023-02-03T17:18:30.154Z,32.17
2023-02-03T17:23:33.866Z,31.68
2023-02-03T17:28:39.689Z,32.07
2023-02-03T17:33:43.312Z,27.56
2023-02-03T17:54:57.465Z,24.01
2023-02-03T18:00:02.276Z,27.08
2023-02-03T18:05:15.737Z,25.56
2023-02-03T18:10:21.851Z,25.85
2023-02-03T18:15:26.677Z,27.74
2023-02-03T18:20:30.311Z,28.29
2023-02-03T18:25:36.483Z,30.47
2023-02-03T18:30:44.239Z,29.90
2023-02-03T18:35:47.684Z,32.37
2023-02-03T18:40:51.134Z,33.72
2023-02-03T18:45:58.331Z,34.36
2023-02-03T18:51:08.679Z,50.78
2023-02-03T18:56:19.539Z,88.24
2023-02-03T19:01:26.130Z,71.31
2023-02-03T19:06:31.121Z,75.45
2023-02-03T19:11:35.169Z,50.56
2023-02-03T19:16:42.685Z,82.75
2023-02-03T19:21:46.123Z,33.15
2023-02-03T19:26:49.608Z,32.42
2023-02-03T19:31:54.677Z,31.06
2023-02-03T19:37:00.290Z,31.35
2023-02-03T19:42:03.872Z,30.13
2023-02-03T19:47:13.566Z,32.38
2023-02-03T19:52:16.987Z,31.11
2023-02-03T19:57:20.368Z,58.13
2023-02-03T20:02:26.003Z,59.65
2023-02-03T20:07:32.813Z,32.00
2023-02-03T20:12:36.468Z,32.02
2023-02-03T20:17:43.786Z,31.83
2023-02-03T20:22:47.410Z,32.74
2023-02-03T20:27:50.940Z,32.66
2023-02-03T20:32:57.913Z,32.48
2023-02-03T20:38:06.664Z,31.76
2023-02-03T20:43:14.590Z,33.43
2023-02-03T20:48:22.269Z,33.26
2023-02-03T20:53:26.815Z,31.92
2023-02-03T20:58:35.944Z,32.03
2023-02-03T21:03:58.141Z,32.95
2023-02-03T21:09:09.946Z,33.50
2023-02-03T21:14:19.359Z,33.47
2023-02-03T21:19:28.614Z,36.16
2023-02-03T21:24:35.628Z,33.32
2023-02-03T21:29:41.095Z,35.01
2023-02-03T21:34:46.540Z,79.34
2023-02-03T21:39:50.529Z,70.11
2023-02-03T21:44:53.964Z,36.44
2023-02-03T21:50:01.426Z,35.24
2023-02-03T21:55:11.292Z,58.07
2023-02-03T22:00:34.702Z,45.50
2023-02-03T22:05:39.489Z,35.41
2023-02-03T22:10:42.988Z,33.27
2023-02-03T22:15:46.553Z,32.43
2023-02-03T22:20:51.347Z,31.14
2023-02-03T22:25:54.690Z,31.40
2023-02-03T22:30:58.198Z,31.44
2023-02-03T22:36:04.217Z,30.98
2023-02-03T22:41:08.340Z,28.13
2023-02-03T22:46:12.233Z,28.68
2023-02-03T22:51:19.321Z,26.77
2023-02-03T22:56:23.706Z,28.20
2023-02-03T23:01:27.234Z,27.44
2023-02-03T23:06:32.025Z,91.06
2023-02-03T23:11:38.437Z,31.99
2023-02-03T23:16:45.029Z,24.96
2023-02-03T23:21:52.421Z,25.75
2023-02-03T23:26:56.050Z,35.93
2023-02-03T23:32:02.446Z,64.28
2023-02-03T23:37:07.276Z,26.12
2023-02-03T23:42:10.808Z,26.99
2023-02-03T23:47:16.780Z,25.47
2023-02-03T23:52:21.538Z,22.77
2023-02-03T23:57:25.057Z,24.50
